Pokaż wyniki od 1 do 7 z 7
  1. #1
    Awatar thewho

    Dołączył
    Feb 2007
    Mieszka w
    WAW

    Domyślnie Ciekawostka METEO - silny wiatr i mgla


    Polecamy

    Kilka METAR'ow z Wilna

    EYVI 091420Z 18014KT 0250 R20/0700N FG VV001 02/02 Q1013 R20/2/0295 NOSIG=
    EYVI 091350Z 17014KT 0300 R20/0650N FG VV001 02/02 Q1013 R20/2/0295 NOSIG=
    EYVI 091320Z 17015KT 0250 R20/0550N FG VV001 02/02 Q1013 R20/2/0295 NOSIG=
    EYVI 091250Z 17014KT 0250 R20/0500N FG VV001 02/02 Q1013 R20/2/0295 NOSIG=
    EYVI 091220Z 17013KT 0300 R20/0550N FG VV001 02/02 Q1013 R20/2/0295 NOSIG=
    EYVI 091216Z 17013KT 0250 R20/0500N FG VV001 02/02 Q1013 R20/2/0295 NOSIG=
    EYVI 091150Z 18014KT 0500 R20/0800N FG VV001 02/02 Q1013 R20/2/0295 NOSIG=
    EYVI 091120Z 18014KT 0350 R20/0650N FG VV001 02/02 Q1013 R20/2/0295 NOSIG=
    EYVI 091050Z 17015KT 0300 R20/0400V0600N FG VV001 02/02 Q1013 R20/2/0295 NOSIG=

    Bede wdzieczy za komentarz od ludzi z METEO na tym forum

  2. #2

    Dołączył
    Feb 2007

    Domyślnie

    Nie jestem specjalistą, ale z ciekawości pytałem co na to nasze meteo i oto odpowiedź:
    -wiatr jest spowodowany różnicą temperatury albo ciśnień w związku z przychodzeniem chłodnego frontu, co powoduje także najście mgły frontowej ( przed przyjściem chłodnego frontu ).
    Jeżeli coś przekręciłem - wybaczcie

  3. #3
    Awatar psotter

    Dołączył
    Feb 2007
    Mieszka w
    Polska

    Domyślnie

    To kiepski front, skoro przez 4 godziny nie drgnęło ciśnienie ani temperatura.

  4. #4

    Dołączył
    Oct 2009
    Mieszka w
    Pruszków@EPWA

    Domyślnie

    A może podpowiedzią jest brak info o chmurach? Może to chmury tak naprawdę do ziemi, idące frontem i poganiane. Tylko aż tak długo i tak nisko?

    Pozdrawiam, Adam

  5. #5

    Dołączył
    Feb 2007
    Mieszka w
    EPWR

    Domyślnie

    Zrobiła się mgła adwekcyjna - jej rozwojowi sprzyja większa prędkość wiatru (choć ta tutaj podana jest już na granicy). Jesli prześledzić górne mapy meteo (850hPa) z tego okresu to można dopatrzeć się słabej bo słabej ale jednak adkwecji ciepła nad tym obszarem - widać wystarczyło. Info o chmurach nie ma bo ich nie można już rozpoznać stąd VV. Ale najcześciej tak to się zaczyna, że podstawy się obniżają i obniżają.. i mgła.
    Jakoś w okolicach świąt Bożego Narodzenia w Poznaniu była podobna sytuacja. Wiatr po 12kt i mgła.

  6. #6
    Awatar thewho

    Dołączył
    Feb 2007
    Mieszka w
    WAW

    Domyślnie

    EYVI 091750Z 16014KT 1500 -RA BR OVC001 02/02 Q1013 R20/2/0295 NOSIG=
    EYVI 091720Z 16014KT 0800 R20/1500N -RA FG OVC001 02/02 Q1013 R20/2/0295 NOSIG=
    EYVI 091709Z 17014KT 1000 R20/P1500N -RA BR OVC001 02/02 Q1013 R20/2/0295 NOSIG=
    EYVI 091709Z 17013KT 1000 R20/P1500N -RA BR OVC001 02/02 Q1013 R20/2/0295 NOSIG=
    EYVI 091650Z 17014KT 0500 R20/1300N FG VV001 02/02 Q1013 R20/2/0295 NOSIG=
    EYVI 091620Z 17014KT 0350 R20/0800V1200D FG VV002 02/02 Q1013 R20/2/0295 TEMPO 0600 FG=
    EYVI 091550Z 17014KT 0300 R20/0900N FG VV001 02/02 Q1013 R20/2/0295 NOSIG=
    EYVI 091520Z 17014KT 0300 R20/0800N FG VV001 02/02 Q1013 R20/2/0295 NOSIG=
    EYVI 091450Z 17014KT 0300 R20/0900N FG VV001 02/02 Q1013 R20/2/0295 NOSIG=
    EYVI 091420Z 18014KT 0250 R20/0700N FG VV001 02/02 Q1013 R20/2/0295 NOSIG=
    EYVI 091350Z 17014KT 0300 R20/0650N FG VV001 02/02 Q1013 R20/2/0295 NOSIG=
    EYVI 091320Z 17015KT 0250 R20/0550N FG VV001 02/02 Q1013 R20/2/0295 NOSIG=
    EYVI 091250Z 17014KT 0250 R20/0500N FG VV001 02/02 Q1013 R20/2/0295 NOSIG=
    EYVI 091220Z 17013KT 0300 R20/0550N FG VV001 02/02 Q1013 R20/2/0295 NOSIG=
    EYVI 091216Z 17013KT 0250 R20/0500N FG VV001 02/02 Q1013 R20/2/0295 NOSIG=
    EYVI 091150Z 18014KT 0500 R20/0800N FG VV001 02/02 Q1013 R20/2/0295 NOSIG=
    EYVI 091120Z 18014KT 0350 R20/0650N FG VV001 02/02 Q1013 R20/2/0295 NOSIG=
    EYVI 091050Z 17015KT 0300 R20/0400V0600N FG VV001 02/02 Q1013 R20/2/0295 NOSIG=
    EYVI 091020Z 17014KT 0200 R20/0325N FG VV001 02/02 Q1013 R20/2/0295 NOSIG=
    EYVI 090950Z 18013KT 0150 R20/0300N FG VV001 01/01 Q1013 R20/2/0295 NOSIG=
    EYVI 090920Z 18013KT 0200 R20/0375N FG VV001 02/02 Q1013 R20/2/0295 NOSIG=
    EYVI 090850Z 17013KT 0300 R20/0550N FG VV001 01/01 Q1013 R20/2/0295 NOSIG=
    EYVI 090820Z 16011KT 0300 R20/0600N FG VV001 01/01 Q1013 R20/2/0295 NOSIG=
    EYVI 090750Z 16011KT 0400 R20/0750N FG VV001 01/01 Q1013 R20/2/0295 NOSIG=
    EYVI 090720Z 17010KT 0650 R20/0800N FG VV001 01/01 Q1012 R20/2/0295 NOSIG=
    EYVI 090710Z 16011KT 0800 R20/0900N FG VV001 01/01 Q1013 R20/2/0295 TEMPO 0600 FG=
    EYVI 090650Z 16012KT 1400 R20/1500N BR OVC001 01/01 Q1012 R20/2/0295 BECMG 0800 FG=

    Trzymalo ok 10 godzin

  7. #7

    Dołączył
    Feb 2007
    Mieszka w
    EPWR

    Domyślnie


    Polecamy

    Może trzymać i parę dni więc i tak mieli dobrze

Uprawnienia umieszczania postów

  • Nie możesz zakładać nowych tematów
  • Nie możesz pisać wiadomości
  • Nie możesz dodawać załączników
  • Nie możesz edytować swoich postów
  •